sensor_id;sensor_type;location;lat;lon;timestamp;P1;durP1;ratioP1;P2;durP2;ratioP2
68475;SDS011;55464;48.266;14.188;2022-12-07T00:00:28;22.63;;;12.38;;
68475;SDS011;55464;48.266;14.188;2022-12-07T00:02:54;19.92;;;11.27;;
68475;SDS011;55464;48.266;14.188;2022-12-07T00:05:19;22.17;;;12.48;;
68475;SDS011;55464;48.266;14.188;2022-12-07T00:07:45;24.88;;;12.40;;
68475;SDS011;55464;48.266;14.188;2022-12-07T00:10:10;23.77;;;13.23;;
68475;SDS011;55464;48.266;14.188;2022-12-07T00:12:36;25.17;;;11.38;;
68475;SDS011;55464;48.266;14.188;2022-12-07T00:15:02;29.33;;;12.73;;
68475;SDS011;55464;48.266;14.188;2022-12-07T00:17:28;23.08;;;11.77;;
68475;SDS011;55464;48.266;14.188;2022-12-07T00:19:53;20.38;;;11.50;;
68475;SDS011;55464;48.266;14.188;2022-12-07T00:22:19;25.00;;;11.82;;
68475;SDS011;55464;48.266;14.188;2022-12-07T00:24:45;23.42;;;11.60;;
68475;SDS011;55464;48.266;14.188;2022-12-07T00:27:10;23.58;;;11.73;;
68475;SDS011;55464;48.266;14.188;2022-12-07T00:29:36;22.00;;;11.55;;
68475;SDS011;55464;48.266;14.188;2022-12-07T00:32:02;22.63;;;11.20;;
68475;SDS011;55464;48.266;14.188;2022-12-07T00:34:28;20.98;;;11.07;;
68475;SDS011;55464;48.266;14.188;2022-12-07T00:36:54;17.55;;;10.50;;
68475;SDS011;55464;48.266;14.188;2022-12-07T00:39:20;17.17;;;10.35;;
68475;SDS011;55464;48.266;14.188;2022-12-07T00:41:46;18.58;;;9.43;;
68475;SDS011;55464;48.266;14.188;2022-12-07T00:44:11;18.17;;;10.13;;
68475;SDS011;55464;48.266;14.188;2022-12-07T00:46:37;17.63;;;9.35;;
68475;SDS011;55464;48.266;14.188;2022-12-07T00:49:03;17.63;;;10.05;;
68475;SDS011;55464;48.266;14.188;2022-12-07T00:51:29;19.25;;;10.75;;
68475;SDS011;55464;48.266;14.188;2022-12-07T00:53:54;19.77;;;10.27;;
68475;SDS011;55464;48.266;14.188;2022-12-07T00:56:21;20.00;;;10.57;;
68475;SDS011;55464;48.266;14.188;2022-12-07T00:59:02;19.98;;;10.65;;
68475;SDS011;55464;48.266;14.188;2022-12-07T01:01:30;17.40;;;10.43;;
68475;SDS011;55464;48.266;14.188;2022-12-07T01:03:57;20.63;;;10.05;;
68475;SDS011;55464;48.266;14.188;2022-12-07T01:06:23;14.50;;;9.60;;
68475;SDS011;55464;48.266;14.188;2022-12-07T01:08:50;17.58;;;9.93;;
68475;SDS011;55464;48.266;14.188;2022-12-07T01:11:18;18.35;;;9.70;;
68475;SDS011;55464;48.266;14.188;2022-12-07T01:13:46;15.48;;;9.07;;
68475;SDS011;55464;48.266;14.188;2022-12-07T01:16:14;16.55;;;10.02;;
68475;SDS011;55464;48.266;14.188;2022-12-07T01:18:41;19.48;;;9.05;;
68475;SDS011;55464;48.266;14.188;2022-12-07T01:21:09;17.40;;;10.32;;
68475;SDS011;55464;48.266;14.188;2022-12-07T01:26:04;13.48;;;8.35;;
68475;SDS011;55464;48.266;14.188;2022-12-07T01:28:32;16.05;;;8.80;;
68475;SDS011;55464;48.266;14.188;2022-12-07T01:31:02;17.67;;;8.73;;
68475;SDS011;55464;48.266;14.188;2022-12-07T01:33:30;16.90;;;9.07;;
68475;SDS011;55464;48.266;14.188;2022-12-07T01:36:05;13.50;;;8.32;;
68475;SDS011;55464;48.266;14.188;2022-12-07T01:38:42;14.45;;;7.63;;
68475;SDS011;55464;48.266;14.188;2022-12-07T01:41:08;12.98;;;7.78;;
68475;SDS011;55464;48.266;14.188;2022-12-07T01:43:35;15.02;;;8.32;;
68475;SDS011;55464;48.266;14.188;2022-12-07T01:46:01;12.10;;;7.70;;
68475;SDS011;55464;48.266;14.188;2022-12-07T01:48:36;13.60;;;7.72;;
68475;SDS011;55464;48.266;14.188;2022-12-07T01:51:05;13.30;;;7.57;;
68475;SDS011;55464;48.266;14.188;2022-12-07T01:53:36;11.88;;;7.53;;
68475;SDS011;55464;48.266;14.188;2022-12-07T01:56:04;10.88;;;6.90;;
68475;SDS011;55464;48.266;14.188;2022-12-07T01:58:33;13.32;;;7.28;;
68475;SDS011;55464;48.266;14.188;2022-12-07T02:00:59;12.05;;;7.28;;
68475;SDS011;55464;48.266;14.188;2022-12-07T02:03:27;12.73;;;7.50;;
68475;SDS011;55464;48.266;14.188;2022-12-07T02:05:59;11.75;;;7.45;;
68475;SDS011;55464;48.266;14.188;2022-12-07T02:08:25;11.55;;;7.18;;
68475;SDS011;55464;48.266;14.188;2022-12-07T02:10:51;10.65;;;6.95;;
68475;SDS011;55464;48.266;14.188;2022-12-07T02:13:24;14.13;;;8.40;;
68475;SDS011;55464;48.266;14.188;2022-12-07T02:21:13;11.60;;;7.55;;
68475;SDS011;55464;48.266;14.188;2022-12-07T02:23:56;13.20;;;7.03;;
68475;SDS011;55464;48.266;14.188;2022-12-07T02:27:02;10.88;;;6.15;;
68475;SDS011;55464;48.266;14.188;2022-12-07T02:29:47;11.82;;;6.47;;
68475;SDS011;55464;48.266;14.188;2022-12-07T02:35:11;11.50;;;6.65;;
68475;SDS011;55464;48.266;14.188;2022-12-07T02:40:29;10.43;;;6.30;;
68475;SDS011;55464;48.266;14.188;2022-12-07T02:43:02;9.65;;;6.47;;
68475;SDS011;55464;48.266;14.188;2022-12-07T02:45:33;8.90;;;5.97;;
68475;SDS011;55464;48.266;14.188;2022-12-07T02:48:01;10.00;;;6.15;;
68475;SDS011;55464;48.266;14.188;2022-12-07T02:50:28;9.52;;;6.25;;
68475;SDS011;55464;48.266;14.188;2022-12-07T02:52:54;7.65;;;5.45;;
68475;SDS011;55464;48.266;14.188;2022-12-07T02:55:23;9.93;;;6.07;;
68475;SDS011;55464;48.266;14.188;2022-12-07T03:00:52;8.63;;;5.60;;
68475;SDS011;55464;48.266;14.188;2022-12-07T03:03:39;7.45;;;4.95;;
68475;SDS011;55464;48.266;14.188;2022-12-07T03:06:22;7.55;;;4.85;;
68475;SDS011;55464;48.266;14.188;2022-12-07T03:11:27;9.45;;;6.25;;
68475;SDS011;55464;48.266;14.188;2022-12-07T03:14:45;7.38;;;5.55;;
68475;SDS011;55464;48.266;14.188;2022-12-07T03:16:56;7.70;;;5.03;;
68475;SDS011;55464;48.266;14.188;2022-12-07T03:19:27;8.90;;;5.50;;
68475;SDS011;55464;48.266;14.188;2022-12-07T03:21:58;7.20;;;5.22;;
68475;SDS011;55464;48.266;14.188;2022-12-07T03:24:29;8.43;;;5.15;;
68475;SDS011;55464;48.266;14.188;2022-12-07T03:27:22;6.88;;;4.80;;
68475;SDS011;55464;48.266;14.188;2022-12-07T03:29:50;7.53;;;5.38;;
68475;SDS011;55464;48.266;14.188;2022-12-07T03:32:27;7.90;;;5.22;;
68475;SDS011;55464;48.266;14.188;2022-12-07T03:35:09;8.10;;;5.35;;
68475;SDS011;55464;48.266;14.188;2022-12-07T03:37:45;7.63;;;4.97;;
68475;SDS011;55464;48.266;14.188;2022-12-07T03:40:22;5.40;;;4.47;;
68475;SDS011;55464;48.266;14.188;2022-12-07T03:42:58;7.07;;;5.03;;
68475;SDS011;55464;48.266;14.188;2022-12-07T03:45:39;7.32;;;4.88;;
68475;SDS011;55464;48.266;14.188;2022-12-07T03:48:22;6.38;;;4.63;;
68475;SDS011;55464;48.266;14.188;2022-12-07T03:50:59;8.38;;;5.53;;
68475;SDS011;55464;48.266;14.188;2022-12-07T03:53:33;8.90;;;4.85;;
68475;SDS011;55464;48.266;14.188;2022-12-07T03:56:02;8.85;;;4.75;;
68475;SDS011;55464;48.266;14.188;2022-12-07T03:58:29;8.68;;;4.82;;
68475;SDS011;55464;48.266;14.188;2022-12-07T04:00:55;5.80;;;4.45;;
68475;SDS011;55464;48.266;14.188;2022-12-07T04:03:21;6.38;;;4.75;;
68475;SDS011;55464;48.266;14.188;2022-12-07T04:05:46;7.72;;;4.93;;
68475;SDS011;55464;48.266;14.188;2022-12-07T04:08:12;7.25;;;5.32;;
68475;SDS011;55464;48.266;14.188;2022-12-07T04:10:38;6.15;;;4.68;;
68475;SDS011;55464;48.266;14.188;2022-12-07T04:13:04;6.47;;;4.70;;
68475;SDS011;55464;48.266;14.188;2022-12-07T04:15:29;6.57;;;4.72;;
68475;SDS011;55464;48.266;14.188;2022-12-07T04:17:55;5.72;;;4.47;;
68475;SDS011;55464;48.266;14.188;2022-12-07T04:20:21;8.52;;;4.97;;
68475;SDS011;55464;48.266;14.188;2022-12-07T04:22:46;6.18;;;4.78;;
68475;SDS011;55464;48.266;14.188;2022-12-07T04:25:12;7.38;;;5.05;;
68475;SDS011;55464;48.266;14.188;2022-12-07T04:27:38;7.22;;;5.28;;
68475;SDS011;55464;48.266;14.188;2022-12-07T04:30:04;7.50;;;4.82;;
68475;SDS011;55464;48.266;14.188;2022-12-07T04:32:30;9.32;;;6.07;;
68475;SDS011;55464;48.266;14.188;2022-12-07T04:34:55;12.68;;;7.07;;
68475;SDS011;55464;48.266;14.188;2022-12-07T04:37:21;9.23;;;6.07;;
68475;SDS011;55464;48.266;14.188;2022-12-07T04:39:48;7.18;;;5.20;;
68475;SDS011;55464;48.266;14.188;2022-12-07T04:42:14;7.00;;;4.90;;
68475;SDS011;55464;48.266;14.188;2022-12-07T04:44:39;9.95;;;5.53;;
68475;SDS011;55464;48.266;14.188;2022-12-07T04:47:05;6.88;;;5.20;;
68475;SDS011;55464;48.266;14.188;2022-12-07T04:49:31;7.63;;;5.43;;
68475;SDS011;55464;48.266;14.188;2022-12-07T04:51:57;8.40;;;4.95;;
68475;SDS011;55464;48.266;14.188;2022-12-07T04:54:22;8.50;;;5.18;;
68475;SDS011;55464;48.266;14.188;2022-12-07T04:56:48;5.95;;;4.63;;
68475;SDS011;55464;48.266;14.188;2022-12-07T04:59:14;6.18;;;4.72;;
68475;SDS011;55464;48.266;14.188;2022-12-07T05:01:41;6.88;;;5.13;;
68475;SDS011;55464;48.266;14.188;2022-12-07T05:04:07;6.75;;;4.78;;
68475;SDS011;55464;48.266;14.188;2022-12-07T05:06:34;7.93;;;5.38;;
68475;SDS011;55464;48.266;14.188;2022-12-07T05:09:00;7.15;;;5.32;;
68475;SDS011;55464;48.266;14.188;2022-12-07T05:11:25;7.13;;;5.15;;
68475;SDS011;55464;48.266;14.188;2022-12-07T05:14:04;8.07;;;5.20;;
68475;SDS011;55464;48.266;14.188;2022-12-07T05:16:56;7.70;;;5.10;;
68475;SDS011;55464;48.266;14.188;2022-12-07T05:19:22;7.15;;;5.57;;
68475;SDS011;55464;48.266;14.188;2022-12-07T05:21:47;8.18;;;5.32;;
68475;SDS011;55464;48.266;14.188;2022-12-07T05:24:14;13.48;;;6.05;;
68475;SDS011;55464;48.266;14.188;2022-12-07T05:26:40;8.07;;;5.80;;
68475;SDS011;55464;48.266;14.188;2022-12-07T05:29:06;7.93;;;5.68;;
68475;SDS011;55464;48.266;14.188;2022-12-07T05:31:32;7.28;;;5.18;;
68475;SDS011;55464;48.266;14.188;2022-12-07T05:33:59;6.93;;;5.03;;
68475;SDS011;55464;48.266;14.188;2022-12-07T05:36:24;8.38;;;5.13;;
68475;SDS011;55464;48.266;14.188;2022-12-07T05:38:50;11.00;;;5.78;;
68475;SDS011;55464;48.266;14.188;2022-12-07T05:41:16;8.50;;;5.80;;
68475;SDS011;55464;48.266;14.188;2022-12-07T05:44:01;6.55;;;5.45;;
68475;SDS011;55464;48.266;14.188;2022-12-07T05:46:27;7.25;;;5.43;;
68475;SDS011;55464;48.266;14.188;2022-12-07T05:48:53;9.07;;;5.97;;
68475;SDS011;55464;48.266;14.188;2022-12-07T05:51:19;7.25;;;5.25;;
68475;SDS011;55464;48.266;14.188;2022-12-07T05:53:44;9.40;;;6.35;;
68475;SDS011;55464;48.266;14.188;2022-12-07T05:56:10;8.05;;;5.63;;
68475;SDS011;55464;48.266;14.188;2022-12-07T05:58:36;9.77;;;5.65;;
68475;SDS011;55464;48.266;14.188;2022-12-07T06:01:20;8.75;;;6.68;;
68475;SDS011;55464;48.266;14.188;2022-12-07T06:03:46;10.27;;;6.78;;
68475;SDS011;55464;48.266;14.188;2022-12-07T06:06:11;10.07;;;7.25;;
68475;SDS011;55464;48.266;14.188;2022-12-07T06:08:37;10.50;;;7.32;;
68475;SDS011;55464;48.266;14.188;2022-12-07T06:11:02;12.02;;;7.80;;
68475;SDS011;55464;48.266;14.188;2022-12-07T06:13:47;12.30;;;7.45;;
68475;SDS011;55464;48.266;14.188;2022-12-07T06:16:12;9.35;;;6.68;;
68475;SDS011;55464;48.266;14.188;2022-12-07T06:18:38;11.75;;;7.65;;
68475;SDS011;55464;48.266;14.188;2022-12-07T06:21:04;10.95;;;7.13;;
68475;SDS011;55464;48.266;14.188;2022-12-07T06:23:29;10.27;;;7.00;;
68475;SDS011;55464;48.266;14.188;2022-12-07T06:25:55;11.43;;;7.60;;
68475;SDS011;55464;48.266;14.188;2022-12-07T06:28:20;10.23;;;7.05;;
68475;SDS011;55464;48.266;14.188;2022-12-07T06:30:46;11.13;;;6.93;;
68475;SDS011;55464;48.266;14.188;2022-12-07T06:33:12;10.65;;;7.28;;
68475;SDS011;55464;48.266;14.188;2022-12-07T06:35:37;13.10;;;7.75;;
68475;SDS011;55464;48.266;14.188;2022-12-07T06:38:03;11.02;;;7.15;;
68475;SDS011;55464;48.266;14.188;2022-12-07T06:40:29;10.13;;;6.75;;
68475;SDS011;55464;48.266;14.188;2022-12-07T06:42:54;10.55;;;7.13;;
68475;SDS011;55464;48.266;14.188;2022-12-07T06:45:20;8.68;;;6.20;;
68475;SDS011;55464;48.266;14.188;2022-12-07T06:47:46;10.45;;;6.65;;
68475;SDS011;55464;48.266;14.188;2022-12-07T06:50:11;8.90;;;6.13;;
68475;SDS011;55464;48.266;14.188;2022-12-07T06:52:37;9.55;;;6.00;;
68475;SDS011;55464;48.266;14.188;2022-12-07T06:55:03;9.07;;;6.97;;
68475;SDS011;55464;48.266;14.188;2022-12-07T06:57:29;9.60;;;6.32;;
68475;SDS011;55464;48.266;14.188;2022-12-07T06:59:54;14.15;;;7.15;;
68475;SDS011;55464;48.266;14.188;2022-12-07T07:02:20;10.75;;;6.88;;
68475;SDS011;55464;48.266;14.188;2022-12-07T07:04:46;11.65;;;6.65;;
68475;SDS011;55464;48.266;14.188;2022-12-07T07:07:11;9.38;;;6.70;;
68475;SDS011;55464;48.266;14.188;2022-12-07T07:09:37;10.23;;;7.20;;
68475;SDS011;55464;48.266;14.188;2022-12-07T07:12:03;8.63;;;6.13;;
68475;SDS011;55464;48.266;14.188;2022-12-07T07:14:28;11.02;;;6.65;;
68475;SDS011;55464;48.266;14.188;2022-12-07T07:16:54;9.52;;;6.72;;
68475;SDS011;55464;48.266;14.188;2022-12-07T07:19:20;11.32;;;7.05;;
68475;SDS011;55464;48.266;14.188;2022-12-07T07:21:45;10.23;;;6.85;;
68475;SDS011;55464;48.266;14.188;2022-12-07T07:24:11;10.07;;;6.18;;
68475;SDS011;55464;48.266;14.188;2022-12-07T07:26:37;9.15;;;6.10;;
68475;SDS011;55464;48.266;14.188;2022-12-07T07:29:02;9.77;;;6.05;;
68475;SDS011;55464;48.266;14.188;2022-12-07T07:31:28;7.80;;;5.55;;
68475;SDS011;55464;48.266;14.188;2022-12-07T07:33:54;10.45;;;5.35;;
68475;SDS011;55464;48.266;14.188;2022-12-07T07:36:20;9.15;;;5.97;;
68475;SDS011;55464;48.266;14.188;2022-12-07T07:38:45;8.63;;;6.32;;
68475;SDS011;55464;48.266;14.188;2022-12-07T07:41:11;11.05;;;6.82;;
68475;SDS011;55464;48.266;14.188;2022-12-07T07:43:36;11.07;;;6.22;;
68475;SDS011;55464;48.266;14.188;2022-12-07T07:46:02;10.90;;;6.60;;
68475;SDS011;55464;48.266;14.188;2022-12-07T07:48:28;9.55;;;6.40;;
68475;SDS011;55464;48.266;14.188;2022-12-07T07:50:53;9.35;;;6.50;;
68475;SDS011;55464;48.266;14.188;2022-12-07T07:53:19;11.20;;;6.88;;
68475;SDS011;55464;48.266;14.188;2022-12-07T07:55:51;10.07;;;6.38;;
68475;SDS011;55464;48.266;14.188;2022-12-07T07:58:18;8.90;;;6.13;;
68475;SDS011;55464;48.266;14.188;2022-12-07T08:00:44;10.77;;;6.30;;
68475;SDS011;55464;48.266;14.188;2022-12-07T08:03:09;10.65;;;7.15;;
68475;SDS011;55464;48.266;14.188;2022-12-07T08:05:36;11.70;;;6.95;;
68475;SDS011;55464;48.266;14.188;2022-12-07T08:08:02;11.10;;;7.13;;
68475;SDS011;55464;48.266;14.188;2022-12-07T08:10:28;13.63;;;6.70;;
68475;SDS011;55464;48.266;14.188;2022-12-07T08:12:53;9.98;;;6.82;;
68475;SDS011;55464;48.266;14.188;2022-12-07T08:15:48;11.18;;;6.55;;
68475;SDS011;55464;48.266;14.188;2022-12-07T08:18:14;9.95;;;6.47;;
68475;SDS011;55464;48.266;14.188;2022-12-07T08:20:40;10.45;;;6.47;;
68475;SDS011;55464;48.266;14.188;2022-12-07T08:23:07;11.38;;;7.53;;
68475;SDS011;55464;48.266;14.188;2022-12-07T08:25:36;13.60;;;7.13;;
68475;SDS011;55464;48.266;14.188;2022-12-07T08:28:03;10.95;;;7.13;;
68475;SDS011;55464;48.266;14.188;2022-12-07T08:30:29;10.95;;;6.80;;
68475;SDS011;55464;48.266;14.188;2022-12-07T08:32:55;11.77;;;7.65;;
68475;SDS011;55464;48.266;14.188;2022-12-07T08:35:22;12.98;;;7.13;;
68475;SDS011;55464;48.266;14.188;2022-12-07T08:37:48;10.82;;;7.10;;
68475;SDS011;55464;48.266;14.188;2022-12-07T08:40:14;9.55;;;6.35;;
68475;SDS011;55464;48.266;14.188;2022-12-07T08:42:43;11.00;;;6.80;;
68475;SDS011;55464;48.266;14.188;2022-12-07T08:45:13;12.18;;;7.75;;
68475;SDS011;55464;48.266;14.188;2022-12-07T08:47:44;10.98;;;6.93;;
68475;SDS011;55464;48.266;14.188;2022-12-07T08:50:31;10.93;;;6.97;;
68475;SDS011;55464;48.266;14.188;2022-12-07T08:52:59;14.85;;;7.18;;
68475;SDS011;55464;48.266;14.188;2022-12-07T08:55:26;10.05;;;6.68;;
68475;SDS011;55464;48.266;14.188;2022-12-07T08:57:53;12.32;;;7.68;;
68475;SDS011;55464;48.266;14.188;2022-12-07T09:00:19;9.90;;;7.20;;
68475;SDS011;55464;48.266;14.188;2022-12-07T09:02:45;10.23;;;7.35;;
68475;SDS011;55464;48.266;14.188;2022-12-07T09:05:12;13.05;;;7.78;;
68475;SDS011;55464;48.266;14.188;2022-12-07T09:07:39;12.05;;;8.00;;
68475;SDS011;55464;48.266;14.188;2022-12-07T09:10:07;10.32;;;7.28;;
68475;SDS011;55464;48.266;14.188;2022-12-07T09:12:34;11.63;;;7.32;;
68475;SDS011;55464;48.266;14.188;2022-12-07T09:15:00;11.88;;;7.63;;
68475;SDS011;55464;48.266;14.188;2022-12-07T09:17:25;13.40;;;8.57;;
68475;SDS011;55464;48.266;14.188;2022-12-07T09:19:51;11.40;;;7.40;;
68475;SDS011;55464;48.266;14.188;2022-12-07T09:22:17;11.10;;;7.65;;
68475;SDS011;55464;48.266;14.188;2022-12-07T09:24:43;12.07;;;8.15;;
68475;SDS011;55464;48.266;14.188;2022-12-07T09:27:10;12.55;;;8.15;;
68475;SDS011;55464;48.266;14.188;2022-12-07T09:29:36;15.13;;;8.02;;
68475;SDS011;55464;48.266;14.188;2022-12-07T09:32:02;13.60;;;8.52;;
68475;SDS011;55464;48.266;14.188;2022-12-07T09:34:30;10.98;;;7.63;;
68475;SDS011;55464;48.266;14.188;2022-12-07T09:36:56;14.75;;;8.70;;
68475;SDS011;55464;48.266;14.188;2022-12-07T09:39:22;14.68;;;7.82;;
68475;SDS011;55464;48.266;14.188;2022-12-07T09:41:48;12.73;;;7.80;;
68475;SDS011;55464;48.266;14.188;2022-12-07T09:44:17;13.68;;;8.07;;
68475;SDS011;55464;48.266;14.188;2022-12-07T09:46:47;12.50;;;8.27;;
68475;SDS011;55464;48.266;14.188;2022-12-07T09:49:16;14.10;;;8.60;;
68475;SDS011;55464;48.266;14.188;2022-12-07T09:51:44;15.18;;;8.93;;
68475;SDS011;55464;48.266;14.188;2022-12-07T09:54:14;14.15;;;8.80;;
68475;SDS011;55464;48.266;14.188;2022-12-07T09:56:42;14.57;;;9.10;;
68475;SDS011;55464;48.266;14.188;2022-12-07T09:59:12;13.55;;;8.80;;
68475;SDS011;55464;48.266;14.188;2022-12-07T10:01:43;13.98;;;8.50;;
68475;SDS011;55464;48.266;14.188;2022-12-07T10:04:11;12.00;;;8.02;;
68475;SDS011;55464;48.266;14.188;2022-12-07T10:06:38;23.80;;;9.00;;
68475;SDS011;55464;48.266;14.188;2022-12-07T10:09:11;17.48;;;10.05;;
68475;SDS011;55464;48.266;14.188;2022-12-07T10:14:29;14.18;;;8.32;;
68475;SDS011;55464;48.266;14.188;2022-12-07T10:16:56;15.10;;;9.25;;
68475;SDS011;55464;48.266;14.188;2022-12-07T10:22:03;15.75;;;9.55;;
68475;SDS011;55464;48.266;14.188;2022-12-07T10:24:33;13.45;;;8.70;;
68475;SDS011;55464;48.266;14.188;2022-12-07T10:26:59;13.18;;;8.85;;
68475;SDS011;55464;48.266;14.188;2022-12-07T10:29:32;14.45;;;9.07;;
68475;SDS011;55464;48.266;14.188;2022-12-07T10:32:03;13.13;;;8.70;;
68475;SDS011;55464;48.266;14.188;2022-12-07T10:34:33;19.80;;;9.77;;
68475;SDS011;55464;48.266;14.188;2022-12-07T10:39:56;14.82;;;8.82;;
68475;SDS011;55464;48.266;14.188;2022-12-07T10:42:29;13.20;;;8.55;;
68475;SDS011;55464;48.266;14.188;2022-12-07T10:45:09;13.88;;;8.73;;
68475;SDS011;55464;48.266;14.188;2022-12-07T10:50:37;15.82;;;10.00;;
68475;SDS011;55464;48.266;14.188;2022-12-07T11:01:13;13.23;;;8.95;;
68475;SDS011;55464;48.266;14.188;2022-12-07T11:03:55;12.38;;;8.20;;
68475;SDS011;55464;48.266;14.188;2022-12-07T11:12:00;14.30;;;8.65;;
68475;SDS011;55464;48.266;14.188;2022-12-07T11:14:41;9.90;;;7.32;;
68475;SDS011;55464;48.266;14.188;2022-12-07T11:17:18;14.20;;;8.87;;
68475;SDS011;55464;48.266;14.188;2022-12-07T11:20:00;11.52;;;7.68;;
68475;SDS011;55464;48.266;14.188;2022-12-07T11:25:29;11.63;;;7.05;;
68475;SDS011;55464;48.266;14.188;2022-12-07T11:28:37;12.82;;;7.55;;
68475;SDS011;55464;48.266;14.188;2022-12-07T11:38:56;10.20;;;7.53;;
68475;SDS011;55464;48.266;14.188;2022-12-07T11:41:29;11.50;;;7.95;;
68475;SDS011;55464;48.266;14.188;2022-12-07T11:44:06;12.05;;;7.72;;
68475;SDS011;55464;48.266;14.188;2022-12-07T11:46:44;12.00;;;8.23;;
68475;SDS011;55464;48.266;14.188;2022-12-07T11:49:27;10.25;;;7.43;;
68475;SDS011;55464;48.266;14.188;2022-12-07T11:52:02;11.80;;;7.88;;
68475;SDS011;55464;48.266;14.188;2022-12-07T11:54:35;10.10;;;7.95;;
68475;SDS011;55464;48.266;14.188;2022-12-07T11:57:07;12.18;;;8.07;;
68475;SDS011;55464;48.266;14.188;2022-12-07T11:59:50;13.80;;;9.02;;
68475;SDS011;55464;48.266;14.188;2022-12-07T12:02:32;12.68;;;7.88;;
68475;SDS011;55464;48.266;14.188;2022-12-07T12:05:13;12.88;;;8.20;;
68475;SDS011;55464;48.266;14.188;2022-12-07T12:07:43;12.77;;;8.02;;
68475;SDS011;55464;48.266;14.188;2022-12-07T12:18:38;10.63;;;7.30;;
68475;SDS011;55464;48.266;14.188;2022-12-07T12:21:19;10.90;;;8.40;;
68475;SDS011;55464;48.266;14.188;2022-12-07T12:23:54;14.38;;;9.70;;
68475;SDS011;55464;48.266;14.188;2022-12-07T12:26:22;13.82;;;8.70;;
68475;SDS011;55464;48.266;14.188;2022-12-07T12:33:53;14.07;;;9.00;;
68475;SDS011;55464;48.266;14.188;2022-12-07T12:36:22;19.40;;;10.35;;
68475;SDS011;55464;48.266;14.188;2022-12-07T12:46:57;11.77;;;8.38;;
68475;SDS011;55464;48.266;14.188;2022-12-07T12:49:42;11.15;;;8.02;;
68475;SDS011;55464;48.266;14.188;2022-12-07T12:57:32;12.30;;;7.85;;
68475;SDS011;55464;48.266;14.188;2022-12-07T12:59:59;11.80;;;7.93;;
68475;SDS011;55464;48.266;14.188;2022-12-07T13:02:29;11.10;;;7.50;;
68475;SDS011;55464;48.266;14.188;2022-12-07T13:18:41;12.60;;;7.47;;
68475;SDS011;55464;48.266;14.188;2022-12-07T13:36:57;11.32;;;7.43;;
68475;SDS011;55464;48.266;14.188;2022-12-07T13:39:25;13.48;;;8.38;;
68475;SDS011;55464;48.266;14.188;2022-12-07T13:41:55;12.57;;;7.97;;
68475;SDS011;55464;48.266;14.188;2022-12-07T13:44:22;14.65;;;8.15;;
68475;SDS011;55464;48.266;14.188;2022-12-07T13:49:25;11.80;;;7.50;;
68475;SDS011;55464;48.266;14.188;2022-12-07T13:51:53;10.15;;;7.38;;
68475;SDS011;55464;48.266;14.188;2022-12-07T13:54:21;10.68;;;7.30;;
68475;SDS011;55464;48.266;14.188;2022-12-07T13:56:50;10.80;;;7.28;;
68475;SDS011;55464;48.266;14.188;2022-12-07T13:59:18;12.32;;;7.60;;
68475;SDS011;55464;48.266;14.188;2022-12-07T14:01:47;12.35;;;6.95;;
68475;SDS011;55464;48.266;14.188;2022-12-07T14:04:18;11.82;;;7.47;;
68475;SDS011;55464;48.266;14.188;2022-12-07T14:06:47;10.18;;;6.40;;
68475;SDS011;55464;48.266;14.188;2022-12-07T14:09:17;9.65;;;7.13;;
68475;SDS011;55464;48.266;14.188;2022-12-07T14:11:45;10.20;;;6.60;;
68475;SDS011;55464;48.266;14.188;2022-12-07T14:14:31;10.50;;;6.95;;
68475;SDS011;55464;48.266;14.188;2022-12-07T14:16:58;9.73;;;6.18;;
68475;SDS011;55464;48.266;14.188;2022-12-07T14:22:35;14.60;;;6.88;;
68475;SDS011;55464;48.266;14.188;2022-12-07T14:30:22;10.13;;;6.07;;
68475;SDS011;55464;48.266;14.188;2022-12-07T14:32:51;11.48;;;6.45;;
68475;SDS011;55464;48.266;14.188;2022-12-07T14:35:19;11.40;;;6.50;;
68475;SDS011;55464;48.266;14.188;2022-12-07T14:37:46;12.00;;;7.03;;
68475;SDS011;55464;48.266;14.188;2022-12-07T14:40:17;10.65;;;6.28;;
68475;SDS011;55464;48.266;14.188;2022-12-07T14:42:49;11.13;;;6.40;;
68475;SDS011;55464;48.266;14.188;2022-12-07T14:45:19;10.23;;;6.82;;
68475;SDS011;55464;48.266;14.188;2022-12-07T14:47:46;10.82;;;6.97;;
68475;SDS011;55464;48.266;14.188;2022-12-07T14:50:13;9.18;;;5.97;;
68475;SDS011;55464;48.266;14.188;2022-12-07T14:52:42;11.38;;;7.25;;
68475;SDS011;55464;48.266;14.188;2022-12-07T14:55:29;9.50;;;6.28;;
68475;SDS011;55464;48.266;14.188;2022-12-07T14:57:56;11.63;;;6.85;;
68475;SDS011;55464;48.266;14.188;2022-12-07T15:00:24;11.07;;;6.50;;
68475;SDS011;55464;48.266;14.188;2022-12-07T15:02:51;11.82;;;6.85;;
68475;SDS011;55464;48.266;14.188;2022-12-07T15:05:17;10.82;;;6.78;;
68475;SDS011;55464;48.266;14.188;2022-12-07T15:07:43;10.93;;;7.22;;
68475;SDS011;55464;48.266;14.188;2022-12-07T15:12:41;11.45;;;7.25;;
68475;SDS011;55464;48.266;14.188;2022-12-07T15:15:07;11.43;;;7.45;;
68475;SDS011;55464;48.266;14.188;2022-12-07T15:17:33;13.85;;;7.15;;
68475;SDS011;55464;48.266;14.188;2022-12-07T15:19:58;11.55;;;7.60;;
68475;SDS011;55464;48.266;14.188;2022-12-07T15:22:24;12.73;;;7.43;;
68475;SDS011;55464;48.266;14.188;2022-12-07T15:24:51;13.52;;;7.43;;
68475;SDS011;55464;48.266;14.188;2022-12-07T15:27:17;12.30;;;7.10;;
68475;SDS011;55464;48.266;14.188;2022-12-07T15:29:42;15.02;;;8.13;;
68475;SDS011;55464;48.266;14.188;2022-12-07T15:32:08;13.48;;;7.82;;
68475;SDS011;55464;48.266;14.188;2022-12-07T15:34:34;12.55;;;7.38;;
68475;SDS011;55464;48.266;14.188;2022-12-07T15:36:59;13.15;;;7.78;;
68475;SDS011;55464;48.266;14.188;2022-12-07T15:39:25;10.15;;;6.82;;
68475;SDS011;55464;48.266;14.188;2022-12-07T15:41:51;15.02;;;8.13;;
68475;SDS011;55464;48.266;14.188;2022-12-07T15:44:16;9.98;;;7.15;;
68475;SDS011;55464;48.266;14.188;2022-12-07T15:47:00;12.15;;;7.13;;
68475;SDS011;55464;48.266;14.188;2022-12-07T15:49:26;13.77;;;8.27;;
68475;SDS011;55464;48.266;14.188;2022-12-07T15:51:53;12.35;;;7.03;;
68475;SDS011;55464;48.266;14.188;2022-12-07T15:54:20;15.82;;;8.00;;
68475;SDS011;55464;48.266;14.188;2022-12-07T15:56:45;12.65;;;7.68;;
68475;SDS011;55464;48.266;14.188;2022-12-07T15:59:11;11.65;;;6.90;;
68475;SDS011;55464;48.266;14.188;2022-12-07T16:01:37;11.50;;;7.20;;
68475;SDS011;55464;48.266;14.188;2022-12-07T16:04:03;11.18;;;6.60;;
68475;SDS011;55464;48.266;14.188;2022-12-07T16:06:29;13.90;;;7.20;;
68475;SDS011;55464;48.266;14.188;2022-12-07T16:08:54;15.65;;;7.15;;
68475;SDS011;55464;48.266;14.188;2022-12-07T16:11:20;13.63;;;8.18;;
68475;SDS011;55464;48.266;14.188;2022-12-07T16:13:46;13.60;;;7.35;;
68475;SDS011;55464;48.266;14.188;2022-12-07T16:16:13;14.13;;;8.35;;
68475;SDS011;55464;48.266;14.188;2022-12-07T16:18:41;18.90;;;9.90;;
68475;SDS011;55464;48.266;14.188;2022-12-07T16:21:07;16.10;;;8.85;;
68475;SDS011;55464;48.266;14.188;2022-12-07T16:23:33;14.27;;;8.20;;
68475;SDS011;55464;48.266;14.188;2022-12-07T16:26:06;15.10;;;8.20;;
68475;SDS011;55464;48.266;14.188;2022-12-07T16:28:32;12.10;;;7.35;;
68475;SDS011;55464;48.266;14.188;2022-12-07T16:31:05;16.17;;;8.70;;
68475;SDS011;55464;48.266;14.188;2022-12-07T16:33:36;16.65;;;8.25;;
68475;SDS011;55464;48.266;14.188;2022-12-07T16:36:03;17.55;;;8.48;;
68475;SDS011;55464;48.266;14.188;2022-12-07T16:38:31;20.40;;;9.10;;